Time;durP1;ratioP1;P1;durP2;ratioP2;P2;SDS_P1;SDS_P2;PMS_P1;PMS_P2;Temp;Humidity;BMP_temperature;BMP_pressure;BME280_temperature;BME280_humidity;BME280_pressure;Samples;Min_cycle;Max_cycle;Signal;HPM_P1;HPM_P2
2022/05/20 00:00:52;;;;;;;;;;;;;;;20.05;26.66;99455.31;4487971;31;20123;-82
2022/05/20 00:03:18;;;;;;;4.75;1.60;;;;;;;20.10;26.58;99450.41;4486742;32;19975;-82
2022/05/20 00:05:43;;;;;;;7.45;1.60;;;;;;;19.86;26.91;99450.63;4486414;32;20127;-82
2022/05/20 00:08:09;;;;;;;4.72;1.50;;;;;;;19.98;26.41;99454.94;4487638;31;20080;-82
2022/05/20 00:10:35;;;;;;;8.82;1.52;;;;;;;19.89;26.48;99452.19;4487591;31;20084;-82
2022/05/20 00:13:01;;;;;;;4.85;1.80;;;;;;;19.97;25.96;99453.25;4486279;32;20097;-82
2022/05/20 00:15:28;;;;;;;5.15;1.70;;;;;;;19.89;26.04;99454.88;4487641;31;20418;-82
2022/05/20 00:17:54;;;;;;;9.20;1.90;;;;;;;19.92;25.88;99446.59;4486408;32;20092;-82
2022/05/20 00:20:22;;;;;;;4.35;1.60;;;;;;;19.92;25.70;99441.25;4487630;31;20118;-82
2022/05/20 00:22:48;;;;;;;5.43;1.65;;;;;;;19.91;25.88;99444.87;4486324;32;20126;-82
2022/05/20 00:27:59;;;;;;;5.05;1.50;;;;;;;19.93;26.09;99445.59;4486490;32;20470;-82
2022/05/20 00:30:25;;;;;;;5.97;1.75;;;;;;;19.89;26.21;99444.16;4487385;31;20096;-82
2022/05/20 00:32:52;;;;;;;5.53;1.40;;;;;;;19.97;26.15;99449.72;4472972;32;20128;-82
2022/05/20 00:35:18;;;;;;;6.12;1.60;;;;;;;20.00;26.04;99438.78;4486024;32;20479;-82
2022/05/20 00:37:44;;;;;;;4.43;1.50;;;;;;;19.95;26.10;99438.31;4487458;31;20612;-82
2022/05/20 00:40:12;;;;;;;4.50;1.40;;;;;;;19.91;26.34;99444.87;4486130;32;20096;-82
2022/05/20 00:42:37;;;;;;;4.57;1.58;;;;;;;19.92;26.34;99441.25;4487448;31;20104;-82
2022/05/20 00:45:04;;;;;;;6.00;1.70;;;;;;;19.87;26.39;99441.62;4486441;32;20143;-82
2022/05/20 00:47:29;;;;;;;5.30;1.40;;;;;;;19.92;26.38;99441.25;4486463;32;20759;-82
2022/05/20 00:49:56;;;;;;;5.60;1.70;;;;;;;19.92;26.46;99451.94;4487567;31;20077;-82
2022/05/20 00:52:23;;;;;;;5.75;1.92;;;;;;;19.91;26.54;99445.72;4486460;32;20463;-82
2022/05/20 00:54:52;;;;;;;5.95;1.52;;;;;;;19.93;26.65;99450.94;4485622;32;20491;-82
2022/05/20 00:57:33;;;;;;;6.03;1.65;;;;;;;19.83;26.59;99441.00;4486366;32;20092;-82
2022/05/20 01:00:21;;;;;;;3.22;1.33;;;;;;;19.77;26.79;99441.53;4486307;32;20104;-82
2022/05/20 01:02:47;;;;;;;4.53;1.58;;;;;;;19.93;26.59;99446.44;4486112;32;20160;-82
2022/05/20 01:05:24;;;;;;;8.27;1.90;;;;;;;19.81;26.70;99444.81;4487286;31;20452;-82
2022/05/20 01:07:51;;;;;;;5.25;1.58;;;;;;;19.91;26.60;99444.87;4487285;31;20093;-82
2022/05/20 01:10:16;;;;;;;4.60;1.45;;;;;;;19.87;26.60;99436.25;4486263;32;20093;-81
2022/05/20 01:12:42;;;;;;;4.72;1.55;;;;;;;19.89;26.53;99439.66;4487358;32;20122;-81
2022/05/20 01:15:08;;;;;;;4.57;1.50;;;;;;;19.87;26.40;99432.75;4487327;31;20397;-82
2022/05/20 01:17:33;;;;;;;5.75;1.70;;;;;;;19.73;26.53;99441.91;4486262;32;20096;-81
2022/05/20 01:19:59;;;;;;;5.32;1.50;;;;;;;19.78;26.48;99443.25;4486118;32;20413;-81
2022/05/20 01:22:30;;;;;;;5.12;1.40;;;;;;;19.79;26.57;99431.56;4487398;31;20164;-81
2022/05/20 01:24:56;;;;;;;5.28;1.70;;;;;;;19.80;26.60;99433.25;4486034;32;20100;-81
2022/05/20 01:27:21;;;;;;;5.75;1.65;;;;;;;19.79;26.71;99423.53;4485910;32;20092;-81
2022/05/20 01:29:46;;;;;;;5.00;1.55;;;;;;;19.77;26.66;99421.97;4487003;31;20080;-81
2022/05/20 01:32:12;;;;;;;6.07;1.75;;;;;;;19.74;26.96;99424.88;4485774;32;20128;-81
2022/05/20 01:34:37;;;;;;;5.15;1.65;;;;;;;19.78;26.59;99423.66;4486691;31;20427;-81
2022/05/20 01:37:03;;;;;;;5.05;1.60;;;;;;;19.52;26.80;99423.09;4487056;32;20141;-81
2022/05/20 01:39:28;;;;;;;5.05;1.75;;;;;;;19.68;26.16;99425.38;4487037;31;20127;-81
2022/05/20 01:42:02;;;;;;;7.10;2.08;;;;;;;19.71;26.03;99428.63;4486837;31;20096;-80
2022/05/20 01:45:02;;;;;;;7.47;1.60;;;;;;;19.54;26.02;99422.00;4485929;32;20471;-81
2022/05/20 01:47:37;;;;;;;5.87;1.80;;;;;;;19.38;27.12;99430.41;4485835;32;20230;-81
2022/05/20 01:50:08;;;;;;;5.32;1.67;;;;;;;19.38;26.32;99414.37;4486862;31;20111;-81
2022/05/20 01:52:42;;;;;;;5.53;1.87;;;;;;;19.61;25.93;99417.84;4485664;32;20467;-81
2022/05/20 01:55:16;;;;;;;4.87;1.50;;;;;;;19.58;25.94;99404.72;4485740;32;20484;-81
2022/05/20 01:58:06;;;;;;;9.60;1.70;;;;;;;19.69;25.92;99395.84;4485622;32;20118;-82
2022/05/20 02:00:33;;;;;;;4.97;1.60;;;;;;;19.71;25.96;99390.38;4486753;31;20161;-81
2022/05/20 02:03:12;;;;;;;5.45;1.77;;;;;;;19.69;26.01;99390.50;4485590;32;20096;-82
2022/05/20 02:06:26;;;;;;;4.75;1.85;;;;;;;19.68;26.23;99390.63;4484295;32;20091;-82
2022/05/20 02:09:01;;;;;;;7.65;1.75;;;;;;;19.74;26.72;99391.00;4472631;31;20104;-81
2022/05/20 02:11:44;;;;;;;5.28;1.70;;;;;;;19.69;26.03;99384.31;4485557;32;20106;-81
2022/05/20 02:14:15;;;;;;;5.68;1.83;;;;;;;19.71;25.95;99383.19;4485365;32;20093;-80
2022/05/20 02:16:45;;;;;;;5.10;1.70;;;;;;;19.65;26.14;99381.88;4486632;32;20516;-81
2022/05/20 02:19:17;;;;;;;5.97;1.60;;;;;;;19.56;26.35;99385.31;4485371;32;20080;-81
2022/05/20 02:21:46;;;;;;;4.90;1.73;;;;;;;19.58;26.55;99390.53;4485325;32;20081;-81
2022/05/20 02:24:15;;;;;;;5.00;1.52;;;;;;;19.65;26.35;99392.56;4485163;32;20164;-82
2022/05/20 02:26:43;;;;;;;6.32;1.67;;;;;;;19.57;26.37;99391.53;4485322;32;20116;-82
2022/05/20 02:29:13;;;;;;;6.55;1.80;;;;;;;19.69;26.37;99393.16;4486395;31;20140;-82
2022/05/20 02:32:12;;;;;;;5.10;1.52;;;;;;;19.73;26.47;99391.13;4471952;32;20104;-82
2022/05/20 02:34:37;;;;;;;6.22;1.75;;;;;;;19.74;26.26;99387.47;4471676;32;20533;-82
2022/05/20 02:37:27;;;;;;;6.90;1.90;;;;;;;19.57;26.60;99384.34;4486349;32;20135;-82
2022/05/20 02:39:54;;;;;;;5.95;1.80;;;;;;;19.79;26.38;99382.59;4486381;31;20190;-82
2022/05/20 02:42:20;;;;;;;6.55;1.80;;;;;;;19.69;26.72;99373.63;4486210;31;20153;-82
2022/05/20 02:44:45;;;;;;;5.00;1.70;;;;;;;19.63;26.67;99369.63;4484975;32;20167;-82
2022/05/20 02:47:11;;;;;;;6.57;1.85;;;;;;;19.56;26.78;99371.09;4484893;32;20165;-81
2022/05/20 02:49:37;;;;;;;5.43;1.70;;;;;;;19.63;26.50;99366.94;4484743;32;20508;-82
2022/05/20 02:52:03;;;;;;;6.97;2.00;;;;;;;19.51;26.66;99365.28;4486033;31;20133;-82
2022/05/20 02:54:29;;;;;;;5.00;1.75;;;;;;;19.66;26.58;99361.34;4484718;32;20150;-82
2022/05/20 02:56:54;;;;;;;7.62;2.20;;;;;;;19.59;26.70;99362.84;4485944;31;20093;-82
2022/05/20 03:04:47;;;;;;;5.78;1.80;;;;;;;19.58;26.62;99358.47;4484888;32;20127;-82
2022/05/20 03:07:13;;;;;;;5.53;1.80;;;;;;;19.71;26.48;99358.28;4484517;32;20448;-82
2022/05/20 03:09:39;;;;;;;7.40;1.77;;;;;;;19.73;26.42;99362.56;4484746;32;20100;-81
2022/05/20 03:12:05;;;;;;;7.25;1.85;;;;;;;19.74;26.18;99358.94;4485645;31;20092;-81
2022/05/20 03:14:31;;;;;;;7.90;1.70;;;;;;;19.67;26.40;99364.88;4485637;31;20096;-82
2022/05/20 03:16:59;;;;;;;5.78;1.83;;;;;;;19.75;26.25;99363.28;4486892;31;20083;-82
2022/05/20 03:19:29;;;;;;;4.62;1.67;;;;;;;19.71;26.41;99367.16;4486846;32;20092;-82
2022/05/20 03:21:55;;;;;;;7.37;1.90;;;;;;;19.61;26.30;99372.41;4488010;31;20080;-81
2022/05/20 03:24:20;;;;;;;4.78;1.67;;;;;;;19.68;26.90;99369.22;4486662;32;20483;-81
2022/05/20 03:26:46;;;;;;;7.10;1.73;;;;;;;19.90;26.34;99363.81;4487964;31;20092;-82
2022/05/20 03:29:12;;;;;;;6.30;1.65;;;;;;;19.79;26.66;99361.19;4486803;32;20087;-82
2022/05/20 03:31:38;;;;;;;6.07;2.08;;;;;;;19.99;26.51;99365.72;4486572;32;20127;-82
2022/05/20 03:34:08;;;;;;;7.75;2.15;;;;;;;19.95;26.62;99371.44;4473341;32;20105;-81
2022/05/20 03:36:38;;;;;;;6.80;1.95;;;;;;;20.03;26.42;99371.69;4486746;32;20168;-81
2022/05/20 03:39:05;;;;;;;6.50;2.00;;;;;;;20.11;26.39;99369.19;4473593;32;20403;-81
2022/05/20 03:41:30;;;;;;;6.37;2.23;;;;;;;20.10;26.48;99370.16;4487904;32;20105;-81
2022/05/20 03:43:56;;;;;;;8.40;2.30;;;;;;;20.18;26.78;99366.81;4487734;31;20122;-81
2022/05/20 03:46:21;;;;;;;8.50;2.37;;;;;;;20.18;29.33;99361.47;4486658;32;20141;-81
2022/05/20 03:48:47;;;;;;;9.13;2.47;;;;;;;20.34;31.82;99367.22;4486558;32;20096;-81
2022/05/20 03:51:13;;;;;;;10.32;2.30;;;;;;;20.30;31.86;99368.47;4487679;32;20081;-81
2022/05/20 03:53:39;;;;;;;7.22;2.15;;;;;;;20.33;30.93;99362.00;4486461;32;20095;-82
2022/05/20 03:56:05;;;;;;;10.18;2.85;;;;;;;20.37;31.36;99358.06;4486557;32;20395;-81
2022/05/20 03:58:31;;;;;;;8.25;2.30;;;;;;;20.40;33.63;99363.19;4486572;32;20092;-81
2022/05/20 04:03:45;;;;;;;7.15;2.00;;;;;;;20.58;29.91;99358.88;4487734;32;20123;-79
2022/05/20 04:06:10;;;;;;;9.25;2.25;;;;;;;20.54;28.42;99354.78;4486408;32;20112;-81
2022/05/20 04:08:36;;;;;;;8.02;2.28;;;;;;;20.68;27.95;99360.81;4487644;31;20136;-81
2022/05/20 04:11:01;;;;;;;7.72;2.10;;;;;;;20.83;27.59;99363.97;4486288;32;20136;-81
2022/05/20 04:13:27;;;;;;;8.18;1.92;;;;;;;20.78;27.09;99367.03;4487364;31;20119;-81
2022/05/20 04:15:54;;;;;;;6.57;1.83;;;;;;;21.03;27.33;99371.06;4486411;32;20095;-81
2022/05/20 04:18:20;;;;;;;8.27;2.12;;;;;;;21.17;27.03;99364.47;4487520;31;20409;-81
2022/05/20 04:20:46;;;;;;;7.18;1.65;;;;;;;21.05;27.42;99357.53;4486360;32;20192;-81
2022/05/20 04:23:14;;;;;;;6.40;1.92;;;;;;;21.35;26.97;99345.91;4486295;32;20147;-80
2022/05/20 04:25:39;;;;;;;7.32;1.90;;;;;;;21.60;26.70;99347.25;4487464;31;20092;-80
2022/05/20 04:28:04;;;;;;;6.70;1.95;;;;;;;21.71;26.47;99355.16;4486494;32;20106;-80
2022/05/20 04:30:30;;;;;;;5.22;1.62;;;;;;;21.94;26.19;99346.78;4487647;31;20076;-81
2022/05/20 04:32:55;;;;;;;6.25;1.60;;;;;;;22.14;26.09;99350.31;4486470;32;20097;-81
2022/05/20 04:35:21;;;;;;;6.32;2.05;;;;;;;22.36;25.73;99341.09;4486056;32;20140;-81
2022/05/20 04:37:46;;;;;;;8.57;2.10;;;;;;;22.40;26.08;99353.22;4487346;31;20110;-81
2022/05/20 04:40:12;;;;;;;8.88;2.80;;;;;;;22.53;26.35;99345.69;4487208;31;20416;-80
2022/05/20 04:48:07;;;;;;;8.95;3.00;;;;;;;22.67;32.30;99363.19;4487417;32;20387;-82
2022/05/20 04:50:32;;;;;;;10.55;3.10;;;;;;;22.60;32.68;99355.84;4486140;32;20088;-81
2022/05/20 04:52:58;;;;;;;9.57;3.28;;;;;;;22.60;32.56;99354.03;4486906;32;20146;-81
2022/05/20 04:55:23;;;;;;;12.07;3.00;;;;;;;22.58;32.60;99348.81;4486121;32;20092;-81
2022/05/20 04:57:51;;;;;;;10.95;3.22;;;;;;;22.65;32.15;99343.69;4487293;31;20341;-81
2022/05/20 05:00:25;;;;;;;10.15;3.28;;;;;;;22.70;32.75;99345.94;4486084;32;20428;-81
2022/05/20 05:02:51;;;;;;;11.15;3.20;;;;;;;22.64;33.06;99352.75;4486211;32;20161;-81
2022/05/20 05:05:19;;;;;;;8.05;3.00;;;;;;;22.91;32.30;99356.44;4487281;31;20122;-81
2022/05/20 05:07:49;;;;;;;13.57;3.50;;;;;;;23.00;32.52;99352.00;4486105;32;20443;-81
2022/05/20 05:10:18;;;;;;;9.15;3.42;;;;;;;23.06;31.90;99348.75;4487150;31;20088;-81
2022/05/20 05:12:43;;;;;;;12.75;3.80;;;;;;;23.06;32.07;99359.50;4487176;31;20096;-81
2022/05/20 05:15:11;;;;;;;12.85;4.00;;;;;;;23.05;31.69;99365.88;4487172;31;20377;-81
2022/05/20 05:20:24;;;;;;;10.93;3.50;;;;;;;23.23;31.97;99374.81;4487172;32;20106;-81
2022/05/20 05:22:50;;;;;;;10.93;4.25;;;;;;;23.26;31.70;99362.94;4485873;32;20224;-81
2022/05/20 05:25:17;;;;;;;14.45;4.25;;;;;;;23.18;32.19;99369.06;4485957;32;20104;-81
2022/05/20 05:27:42;;;;;;;11.45;4.22;;;;;;;23.16;32.43;99363.00;4485834;32;20089;-81
2022/05/20 05:30:11;;;;;;;10.30;3.42;;;;;;;23.28;32.09;99359.09;4485798;32;20110;-81
2022/05/20 05:32:37;;;;;;;10.27;3.90;;;;;;;23.43;32.04;99353.19;4485902;32;20099;-81
2022/05/20 05:35:04;;;;;;;14.15;3.70;;;;;;;23.49;31.99;99358.81;4486819;31;20096;-81
2022/05/20 05:37:33;;;;;;;9.65;2.90;;;;;;;23.81;31.76;99354.75;4487050;31;20112;-81
2022/05/20 05:39:59;;;;;;;10.25;2.75;;;;;;;23.89;28.67;99345.91;4485428;32;20164;-80
2022/05/20 05:42:24;;;;;;;8.10;2.70;;;;;;;24.05;28.54;99346.06;4486023;32;20405;-81
2022/05/20 05:44:52;;;;;;;7.12;2.22;;;;;;;24.17;26.26;99340.41;4485991;32;20100;-81
2022/05/20 05:47:17;;;;;;;8.35;2.65;;;;;;;24.11;24.90;99336.50;4487029;31;20141;-81
2022/05/20 05:49:43;;;;;;;9.00;2.00;;;;;;;24.35;24.80;99343.91;4487162;31;20352;-81
2022/05/20 05:52:08;;;;;;;9.77;3.10;;;;;;;24.57;24.43;99341.69;4486911;31;20415;-81
2022/05/20 05:54:35;;;;;;;9.07;2.70;;;;;;;24.77;26.51;99343.16;4486839;31;20114;-81
2022/05/20 05:57:01;;;;;;;7.47;2.20;;;;;;;24.97;26.17;99332.94;4485689;32;20210;-81
2022/05/20 05:59:26;;;;;;;7.20;2.55;;;;;;;24.92;23.63;99335.31;4486735;31;20088;-81
2022/05/20 06:01:57;;;;;;;7.85;2.45;;;;;;;25.03;23.38;99339.53;4485406;32;20183;-81
2022/05/20 06:04:23;;;;;;;9.38;2.22;;;;;;;25.13;23.11;99337.56;4485396;32;20514;-82
2022/05/20 06:06:48;;;;;;;6.68;2.22;;;;;;;25.24;23.47;99339.97;4486765;31;20144;-81
2022/05/20 06:09:14;;;;;;;7.68;2.33;;;;;;;25.37;23.18;99334.12;4486661;31;20114;-81
2022/05/20 06:11:40;;;;;;;8.13;2.03;;;;;;;25.50;22.88;99337.19;4486590;31;20334;-81
2022/05/20 06:14:07;;;;;;;7.60;2.10;;;;;;;25.61;22.81;99341.41;4486529;31;20116;-79
2022/05/20 06:16:32;;;;;;;12.23;2.53;;;;;;;25.75;23.10;99336.34;4486441;31;20501;-77
2022/05/20 06:18:58;;;;;;;7.05;2.28;;;;;;;25.97;22.92;99342.97;4472185;32;20088;-82
2022/05/20 06:21:24;;;;;;;8.63;2.28;;;;;;;26.28;22.44;99340.41;4486531;31;20149;-82
2022/05/20 06:23:49;;;;;;;9.02;2.10;;;;;;;26.42;22.34;99336.97;4486443;32;20111;-82
2022/05/20 06:26:14;;;;;;;9.75;2.33;;;;;;;26.61;22.45;99332.25;4486342;31;20118;-82
2022/05/20 06:28:40;;;;;;;7.30;2.60;;;;;;;26.98;21.78;99328.03;4486543;31;20092;-82
2022/05/20 06:31:06;;;;;;;7.43;2.35;;;;;;;27.06;21.61;99319.88;4472264;32;20464;-82
2022/05/20 06:33:31;;;;;;;6.60;2.30;;;;;;;27.21;21.51;99319.97;4486527;31;20154;-81
2022/05/20 06:41:25;;;;;;;6.43;2.20;;;;;;;27.76;21.09;99323.53;4494021;31;20146;-80
2022/05/20 06:43:50;;;;;;;7.93;2.42;;;;;;;27.70;21.75;99325.09;4493591;31;20101;-80
2022/05/20 06:46:16;;;;;;;6.78;2.33;;;;;;;27.67;21.31;99327.31;4490647;31;20104;-79
2022/05/20 06:48:47;;;;;;;8.00;2.33;;;;;;;27.47;22.06;99330.50;4494199;31;20115;-84
2022/05/20 06:51:21;;;;;;;11.93;2.37;;;;;;;27.31;21.41;99338.72;4487924;31;20089;-86
2022/05/20 06:53:47;;;;;;;9.32;2.45;;;;;;;27.30;22.22;99342.47;4473692;32;20108;-85
2022/05/20 06:56:13;;;;;;;11.70;2.37;;;;;;;27.37;22.29;99340.72;4476127;31;20453;-86
2022/05/20 06:58:39;;;;;;;8.93;2.50;;;;;;;26.97;22.54;99350.72;4491863;31;20087;-86
2022/05/20 07:01:05;;;;;;;7.50;2.17;;;;;;;26.36;23.53;99364.69;4494905;31;20367;-82
2022/05/20 07:03:31;;;;;;;7.50;2.50;;;;;;;26.50;22.46;99349.62;4488859;31;20100;-87
2022/05/20 07:05:56;;;;;;;6.40;2.30;;;;;;;26.35;22.69;99338.72;4471782;32;20145;-87
2022/05/20 07:08:22;;;;;;;6.85;2.30;;;;;;;26.35;23.47;99345.94;4494980;31;20143;-83
2022/05/20 07:10:47;;;;;;;10.70;2.60;;;;;;;26.12;24.15;99348.53;4483311;32;20105;-82
2022/05/20 07:13:13;;;;;;;12.07;2.92;;;;;;;25.95;24.26;99356.62;4487453;31;20180;-88
2022/05/20 07:15:39;;;;;;;7.50;2.40;;;;;;;26.03;24.55;99356.62;4487821;32;20092;-84
2022/05/20 07:18:04;;;;;;;8.52;2.85;;;;;;;25.79;24.81;99353.91;4487333;31;20416;-85
2022/05/20 07:20:30;;;;;;;8.20;2.40;;;;;;;26.00;24.68;99354.28;4473481;32;20100;-85
2022/05/20 07:22:55;;;;;;;9.77;2.12;;;;;;;25.85;24.79;99366.72;4487336;32;20119;-83
2022/05/20 07:25:21;;;;;;;9.98;2.30;;;;;;;25.88;25.51;99367.25;4487702;32;20204;-86
2022/05/20 07:27:46;;;;;;;8.00;2.40;;;;;;;25.37;25.08;99366.47;4485137;32;20092;-89
2022/05/20 07:30:13;;;;;;;9.07;2.28;;;;;;;25.35;25.45;99364.97;4497702;31;20100;-88
2022/05/20 07:32:38;;;;;;;11.02;2.20;;;;;;;25.24;25.03;99366.94;4503117;31;20459;-85
2022/05/20 07:35:04;;;;;;;8.23;2.15;;;;;;;25.40;25.25;99366.16;4502701;31;20164;-83
2022/05/20 07:37:30;;;;;;;5.60;1.85;;;;;;;25.56;25.58;99357.25;4503518;31;20098;-87
2022/05/20 07:39:56;;;;;;;8.70;2.22;;;;;;;25.67;25.30;99366.84;4503120;31;20697;-86
2022/05/20 07:42:22;;;;;;;8.93;2.58;;;;;;;25.89;25.01;99362.69;4503053;31;20107;-83
2022/05/20 07:44:48;;;;;;;7.70;2.23;;;;;;;26.03;24.34;99351.22;4503081;31;20092;-84
2022/05/20 07:47:13;;;;;;;8.40;2.20;;;;;;;26.29;24.53;99352.91;4503555;31;20115;-85
2022/05/20 07:49:39;;;;;;;6.28;2.20;;;;;;;26.61;24.84;99359.28;4503078;31;20084;-82
2022/05/20 07:52:06;;;;;;;9.32;2.35;;;;;;;26.80;23.91;99356.16;4503148;31;20088;-86
2022/05/20 07:54:37;;;;;;;6.53;2.05;;;;;;;26.76;23.39;99340.47;4488361;31;20144;-86
2022/05/20 07:57:07;;;;;;;6.95;2.08;;;;;;;27.18;23.59;99359.06;4488568;31;20510;-86
2022/05/20 07:59:47;;;;;;;9.35;2.35;;;;;;;27.26;23.30;99359.03;4503493;31;20088;-86
2022/05/20 08:02:14;;;;;;;6.85;2.10;;;;;;;27.26;23.46;99358.19;4488571;31;20118;-89
2022/05/20 08:04:56;;;;;;;7.18;2.10;;;;;;;26.88;22.93;99361.53;4502860;31;20162;-82
2022/05/20 08:07:31;;;;;;;7.00;2.10;;;;;;;27.18;23.65;99337.41;4489806;31;20382;-83
2022/05/20 08:09:57;;;;;;;6.47;2.00;;;;;;;27.42;23.07;99341.03;4502935;31;20107;-86
2022/05/20 08:12:23;;;;;;;7.40;1.83;;;;;;;27.57;23.38;99338.41;4503383;31;20114;-87
2022/05/20 08:14:48;;;;;;;7.65;2.30;;;;;;;27.55;23.19;99345.84;4488387;31;20080;-87
2022/05/20 08:17:14;;;;;;;6.10;1.92;;;;;;;27.43;22.74;99338.16;4503312;31;20132;-95
2022/05/20 08:19:40;;;;;;;6.95;2.12;;;;;;;27.17;23.68;99335.72;4488766;31;20367;-89
2022/05/20 08:22:06;;;;;;;9.85;2.15;;;;;;;27.21;24.05;99339.75;4497295;31;20466;-88
2022/05/20 08:24:32;;;;;;;8.07;2.42;;;;;;;27.31;23.84;99339.56;4502300;31;20139;-85
2022/05/20 08:26:58;;;;;;;6.07;2.22;;;;;;;27.18;23.52;99340.13;4488758;31;20072;-85
2022/05/20 08:29:24;;;;;;;8.45;2.45;;;;;;;27.29;23.01;99340.75;4503099;31;20123;-86
2022/05/20 08:31:50;;;;;;;9.85;2.20;;;;;;;27.22;23.41;99341.44;4502128;31;20100;-86
2022/05/20 08:34:16;;;;;;;8.90;2.10;;;;;;;27.34;23.74;99333.81;4502960;31;20478;-86
2022/05/20 08:36:42;;;;;;;6.32;2.28;;;;;;;27.33;23.52;99332.09;4502689;31;20084;-84
2022/05/20 08:39:12;;;;;;;8.35;2.17;;;;;;;27.34;24.06;99328.38;4495182;31;20100;-86
2022/05/20 08:41:51;;;;;;;9.35;2.25;;;;;;;27.45;23.95;99333.38;4473070;32;20100;-86
2022/05/20 08:44:21;;;;;;;8.40;2.67;;;;;;;27.40;23.97;99316.84;4485853;31;20080;-87
2022/05/20 08:46:47;;;;;;;7.93;2.30;;;;;;;27.32;24.35;99321.47;4488831;31;20084;-84
2022/05/20 08:49:16;;;;;;;6.97;2.20;;;;;;;27.49;24.27;99317.66;4475179;31;20108;-86
2022/05/20 08:51:46;;;;;;;8.32;2.40;;;;;;;27.46;23.93;99315.28;4503285;31;20083;-83
2022/05/20 08:54:11;;;;;;;9.27;2.62;;;;;;;27.61;24.21;99312.66;4488990;31;20071;-84
2022/05/20 08:56:38;;;;;;;6.55;2.50;;;;;;;27.80;24.13;99308.59;4502891;31;20445;-86
2022/05/20 08:59:06;;;;;;;8.00;2.50;;;;;;;27.93;23.70;99298.03;4503095;31;20118;-85
2022/05/20 09:01:32;;;;;;;10.70;3.33;;;;;;;28.01;23.66;99303.38;4502942;31;20092;-85
2022/05/20 09:03:58;;;;;;;11.70;2.43;;;;;;;27.96;24.12;99294.94;4503021;31;20393;-86
2022/05/20 09:06:24;;;;;;;6.15;2.40;;;;;;;28.13;23.77;99295.62;4503055;31;20126;-84
2022/05/20 09:09:09;;;;;;;6.22;2.47;;;;;;;28.09;23.83;99297.03;4488535;31;20104;-84
2022/05/20 09:11:36;;;;;;;7.65;2.65;;;;;;;28.09;23.63;99282.66;4488492;31;20523;-85
2022/05/20 09:17:18;;;;;;;7.28;2.40;;;;;;;28.00;23.97;99274.59;4502855;31;20152;-84
2022/05/20 09:20:05;;;;;;;8.15;2.62;;;;;;;28.07;24.58;99280.12;4502659;31;20118;-84
2022/05/20 09:22:36;;;;;;;7.97;2.60;;;;;;;27.98;24.05;99282.06;4475528;31;20086;-84
2022/05/20 09:25:03;;;;;;;11.30;2.37;;;;;;;27.95;24.83;99281.59;4490349;31;20130;-83
2022/05/20 09:27:32;;;;;;;7.75;2.50;;;;;;;27.85;24.70;99279.09;4486154;31;20089;-84
2022/05/20 09:30:10;;;;;;;9.57;2.70;;;;;;;27.83;24.52;99281.16;4482890;31;20107;-84
2022/05/20 09:32:39;;;;;;;6.70;2.37;;;;;;;27.90;24.79;99275.91;4480055;31;20156;-84
2022/05/20 09:35:20;;;;;;;8.70;2.40;;;;;;;27.85;24.72;99282.69;4478687;31;20123;-85
2022/05/20 09:37:48;;;;;;;8.13;2.33;;;;;;;27.91;24.24;99264.88;4483851;31;20079;-84
2022/05/20 09:40:34;;;;;;;8.77;2.42;;;;;;;27.83;23.85;99268.47;4474257;32;20116;-84
2022/05/20 09:43:07;;;;;;;6.85;2.05;;;;;;;27.87;25.09;99268.94;4486649;32;20147;-84
2022/05/20 09:45:50;;;;;;;9.65;2.55;;;;;;;27.92;24.18;99268.44;4486350;31;20092;-84
2022/05/20 09:48:23;;;;;;;9.80;2.85;;;;;;;27.88;24.19;99265.25;4483389;31;20407;-85
2022/05/20 09:51:13;;;;;;;9.70;2.30;;;;;;;27.83;24.70;99270.31;4461587;31;20164;-85
2022/05/20 09:53:41;;;;;;;8.68;2.50;;;;;;;27.85;24.60;99263.72;4497460;31;20087;-84
2022/05/20 09:56:13;;;;;;;9.10;2.45;;;;;;;27.84;24.46;99266.59;4491737;31;20199;-87
2022/05/20 09:58:38;;;;;;;11.55;2.80;;;;;;;27.85;24.40;99271.84;4481835;32;20126;-85
2022/05/20 10:01:08;;;;;;;9.88;2.67;;;;;;;27.92;25.08;99273.84;4492691;31;20092;-87
2022/05/20 10:03:36;;;;;;;7.45;2.40;;;;;;;27.84;25.76;99263.91;4480101;31;20163;-85
2022/05/20 10:06:17;;;;;;;8.27;2.45;;;;;;;27.76;25.27;99261.28;4493214;31;20107;-83
2022/05/20 10:08:56;;;;;;;7.90;2.33;;;;;;;27.85;25.10;99262.84;4498703;31;20125;-82
2022/05/20 10:11:31;;;;;;;8.55;2.25;;;;;;;27.97;25.39;99255.16;4478833;31;20420;-85
2022/05/20 10:14:15;;;;;;;8.48;2.40;;;;;;;28.02;25.32;99269.81;4482850;31;20531;-83
2022/05/20 10:16:51;;;;;;;8.48;2.50;;;;;;;27.83;25.39;99254.06;4487732;31;20076;-84
2022/05/20 10:19:50;;;;;;;7.18;2.20;;;;;;;27.76;25.88;99256.69;4474336;31;20101;-83
2022/05/20 10:22:40;;;;;;;8.73;2.60;;;;;;;27.94;25.25;99250.97;4501921;31;20111;-83
2022/05/20 10:25:24;;;;;;;8.70;2.62;;;;;;;27.92;25.26;99258.44;4487434;31;20135;-86
2022/05/20 10:34:00;;;;;;;8.50;2.20;;;;;;;27.89;25.61;99247.97;4491411;31;20374;-86
2022/05/20 10:36:39;;;;;;;7.53;3.05;;;;;;;27.80;25.64;99249.88;4489025;31;20103;-83
2022/05/20 10:39:22;;;;;;;7.53;2.60;;;;;;;27.50;26.19;99256.25;4489532;31;20359;-85
2022/05/20 10:42:20;;;;;;;7.35;2.58;;;;;;;27.57;26.72;99258.03;4489573;31;20442;-85
2022/05/20 10:51:04;;;;;;;7.72;2.40;;;;;;;27.43;27.20;99242.59;4502674;31;20115;-85
2022/05/20 10:53:47;;;;;;;7.30;2.10;;;;;;;27.85;26.69;99236.66;4490860;31;20088;-91
2022/05/20 10:57:06;;;;;;;9.27;2.50;;;;;;;28.02;26.68;99231.06;4481431;31;20113;-87
2022/05/20 10:59:44;;;;;;;7.53;2.62;;;;;;;28.26;25.97;99227.28;4418216;32;20184;-93
2022/05/20 11:02:44;;;;;;;8.20;2.72;;;;;;;28.50;25.66;99228.81;4408480;32;20132;-94
2022/05/20 11:05:22;;;;;;;8.20;2.60;;;;;;;28.53;25.82;99223.06;4391641;32;20512;-88
2022/05/20 11:07:54;;;;;;;10.27;2.95;;;;;;;28.63;25.81;99230.91;4393301;32;20115;-89
2022/05/20 11:10:35;;;;;;;8.85;2.80;;;;;;;28.55;25.98;99223.72;4393373;32;20148;-89
2022/05/20 11:13:31;;;;;;;8.63;2.80;;;;;;;28.92;25.39;99219.16;4393598;32;20420;-86
2022/05/20 11:16:22;;;;;;;12.02;2.58;;;;;;;29.13;25.60;99212.06;4406150;32;20086;-86
2022/05/20 11:19:06;;;;;;;8.00;2.80;;;;;;;29.18;25.28;99207.75;4405201;32;20222;-85
2022/05/20 11:21:47;;;;;;;7.28;2.70;;;;;;;29.27;25.30;99213.91;4408080;32;20132;-86
2022/05/20 11:24:25;;;;;;;9.43;2.70;;;;;;;29.31;25.03;99215.19;4408313;32;20124;-91
2022/05/20 11:27:02;;;;;;;9.77;2.50;;;;;;;29.26;24.87;99211.38;4396043;32;20105;-86
2022/05/20 11:29:38;;;;;;;6.30;2.50;;;;;;;29.21;25.11;99201.13;4427474;32;20131;-86
2022/05/20 11:32:11;;;;;;;8.52;2.70;;;;;;;29.10;25.17;99205.12;4487720;32;20459;-86
2022/05/20 11:34:55;;;;;;;8.75;2.60;;;;;;;29.07;25.62;99205.53;4487309;32;20138;-86
2022/05/20 11:37:33;;;;;;;8.70;3.00;;;;;;;29.08;25.74;99203.66;4487296;32;20085;-86
2022/05/20 11:40:08;;;;;;;8.50;3.00;;;;;;;28.91;25.83;99192.22;4473560;32;20557;-84
2022/05/20 11:42:36;;;;;;;7.87;2.70;;;;;;;28.87;26.48;99185.50;4487448;32;20100;-85
2022/05/20 11:45:15;;;;;;;9.90;3.10;;;;;;;28.87;26.91;99190.91;4487581;32;20114;-85
2022/05/20 11:48:08;;;;;;;9.32;2.97;;;;;;;28.85;26.38;99179.44;4461047;32;20432;-83
2022/05/20 11:50:49;;;;;;;8.60;2.87;;;;;;;28.84;26.19;99175.88;4486271;31;20088;-83
2022/05/20 11:53:41;;;;;;;8.23;2.65;;;;;;;28.61;26.79;99176.88;4487541;32;20402;-84
2022/05/20 11:56:32;;;;;;;7.68;2.72;;;;;;;28.80;25.82;99171.84;4486694;32;20495;-84
2022/05/20 11:59:01;;;;;;;8.38;2.80;;;;;;;28.76;25.95;99168.72;4489101;31;20160;-89
2022/05/20 12:01:27;;;;;;;7.65;2.65;;;;;;;28.84;26.06;99170.47;4487613;31;20126;-86
2022/05/20 12:04:08;;;;;;;9.85;2.60;;;;;;;28.87;26.11;99166.50;4483805;32;20165;-88
2022/05/20 12:06:48;;;;;;;9.27;2.90;;;;;;;28.81;26.45;99162.69;4485232;32;20539;-87
2022/05/20 12:09:32;;;;;;;9.50;2.53;;;;;;;28.80;25.98;99163.72;4484705;32;20110;-84
2022/05/20 12:12:27;;;;;;;9.00;2.67;;;;;;;28.59;26.04;99164.56;4486150;31;20104;-86
2022/05/20 12:15:11;;;;;;;12.18;2.80;;;;;;;28.40;27.00;99158.66;4486079;32;20084;-87
2022/05/20 12:17:47;;;;;;;11.23;2.75;;;;;;;28.52;26.89;99159.03;4492514;31;20097;-85
2022/05/20 12:25:59;;;;;;;8.45;2.78;;;;;;;28.59;26.48;99154.53;4486452;32;20119;-88
2022/05/20 12:28:24;;;;;;;7.93;2.70;;;;;;;28.79;25.81;99146.63;4487238;32;20085;-89
2022/05/20 12:31:20;;;;;;;7.72;2.40;;;;;;;28.86;26.06;99153.97;4487382;32;20096;-89
2022/05/20 12:33:56;;;;;;;7.85;2.70;;;;;;;29.01;26.33;99141.19;4486994;32;20466;-84